Time;durP1;ratioP1;P1;durP2;ratioP2;P2;SDS_P1;SDS_P2;PMS_P1;PMS_P2;Temp;Humidity;BMP_temperature;BMP_pressure;BME280_temperature;BME280_humidity;BME280_pressure;Samples;Min_cycle;Max_cycle;Signal;HPM_P1;HPM_P2
2023/08/14 00:01:49;;;;;;;39.55;36.15;;;17.60;99.90;;;;;;5048834;28;20052;-64
2023/08/14 00:04:15;;;;;;;40.42;37.13;;;17.80;99.90;;;;;;5048903;28;20025;-65
2023/08/14 00:06:40;;;;;;;40.47;36.83;;;17.60;99.90;;;;;;5049030;28;20029;-64
2023/08/14 00:09:06;;;;;;;40.08;36.45;;;18.00;99.90;;;;;;5048523;28;20060;-64
2023/08/14 00:11:31;;;;;;;39.35;35.95;;;17.50;99.90;;;;;;5051064;28;20174;-64
2023/08/14 00:13:57;;;;;;;39.42;35.97;;;18.00;99.90;;;;;;5048804;28;20033;-64
2023/08/14 00:16:24;;;;;;;38.22;34.97;;;17.80;99.90;;;;;;5049483;28;20044;-64
2023/08/14 00:18:49;;;;;;;38.33;34.95;;;17.80;99.90;;;;;;5054283;28;20139;-64
2023/08/14 00:21:15;;;;;;;40.92;37.33;;;17.40;99.90;;;;;;5049829;28;20124;-64
2023/08/14 00:23:41;;;;;;;38.85;35.65;;;17.90;99.90;;;;;;5048127;28;20406;-63
2023/08/14 00:26:07;;;;;;;39.35;36.05;;;17.40;99.90;;;;;;5048183;28;20041;-64
2023/08/14 00:28:32;;;;;;;38.83;35.38;;;17.90;99.90;;;;;;5048469;28;20049;-65
2023/08/14 00:30:58;;;;;;;39.75;35.88;;;17.40;99.90;;;;;;5049134;28;20438;-64
2023/08/14 00:33:23;;;;;;;41.38;37.53;;;17.80;99.90;;;;;;5047238;28;20048;-64
2023/08/14 00:35:49;;;;;;;40.78;36.95;;;17.70;99.90;;;;;;5046235;28;20124;-64
2023/08/14 00:38:15;;;;;;;41.15;37.72;;;17.60;99.90;;;;;;5048661;28;20151;-64
2023/08/14 00:40:40;;;;;;;41.50;37.70;;;17.60;99.90;;;;;;5051833;28;20788;-64
2023/08/14 00:43:06;;;;;;;42.13;38.42;;;18.20;99.90;;;;;;5048535;28;20526;-63
2023/08/14 00:45:32;;;;;;;40.03;36.65;;;17.60;99.90;;;;;;5048333;28;20063;-64
2023/08/14 00:47:57;;;;;;;41.13;37.63;;;17.90;99.90;;;;;;5051942;28;20626;-63
2023/08/14 00:50:23;;;;;;;40.95;37.28;;;17.80;99.90;;;;;;5052251;28;20045;-63
2023/08/14 00:52:53;;;;;;;41.20;37.65;;;17.80;99.90;;;;;;5052227;28;20045;-63
2023/08/14 00:55:22;;;;;;;40.97;37.20;;;17.90;99.90;;;;;;5053260;28;20029;-64
2023/08/14 00:57:50;;;;;;;40.13;36.60;;;17.80;99.90;;;;;;5051975;28;20068;-65
2023/08/14 01:00:16;;;;;;;41.50;37.47;;;17.80;99.90;;;;;;5050412;28;20076;-64
2023/08/14 01:02:46;;;;;;;41.33;37.53;;;18.10;99.90;;;;;;5061052;28;20076;-64
2023/08/14 01:05:12;;;;;;;43.75;39.65;;;18.00;99.90;;;;;;5055554;28;20033;-65
2023/08/14 01:07:38;;;;;;;42.50;38.80;;;17.80;99.90;;;;;;5052208;28;20044;-65
2023/08/14 01:10:06;;;;;;;42.10;38.53;;;18.60;99.90;;;;;;5051945;28;20572;-64
2023/08/14 01:13:01;;;;;;;43.42;39.42;;;17.80;99.90;;;;;;5056257;28;20041;-64
2023/08/14 01:15:32;;;;;;;41.85;38.22;;;18.40;99.90;;;;;;5049196;28;20044;-65
2023/08/14 01:18:01;;;;;;;42.65;38.80;;;18.20;99.90;;;;;;5052039;28;20542;-64
2023/08/14 01:20:29;;;;;;;42.05;38.50;;;17.80;99.90;;;;;;5049958;28;20491;-64
2023/08/14 01:23:20;;;;;;;40.92;37.00;;;18.40;99.90;;;;;;5051129;28;20100;-64
2023/08/14 01:25:47;;;;;;;41.75;38.00;;;17.90;99.90;;;;;;5050879;28;20033;-64
2023/08/14 01:28:13;;;;;;;42.25;38.55;;;18.40;99.90;;;;;;5052007;28;20033;-64
2023/08/14 01:30:39;;;;;;;41.70;37.90;;;18.00;99.90;;;;;;5051516;28;20039;-64
2023/08/14 01:33:04;;;;;;;41.08;37.47;;;18.30;99.90;;;;;;5051330;28;20036;-63
2023/08/14 01:35:39;;;;;;;41.92;38.13;;;17.80;99.90;;;;;;5050640;28;20447;-64
2023/08/14 01:38:36;;;;;;;42.35;38.50;;;18.50;99.90;;;;;;5051598;28;20083;-63
2023/08/14 01:41:06;;;;;;;;;;;18.20;99.90;;;;;;5051708;28;20495;-63
2023/08/14 01:43:37;;;;;;;39.95;36.55;;;17.90;99.90;;;;;;5052982;28;20017;-64
2023/08/14 01:46:05;;;;;;;41.15;37.47;;;18.40;99.90;;;;;;5050272;28;20037;-64
2023/08/14 01:48:31;;;;;;;40.50;37.00;;;17.80;99.90;;;;;;5051362;28;20040;-65
2023/08/14 01:50:58;;;;;;;40.50;36.15;;;17.80;99.90;;;;;;5051288;28;21195;-63
2023/08/14 01:53:24;;;;;;;39.78;36.30;;;17.80;99.90;;;;;;5051516;28;20868;-64
2023/08/14 01:55:49;;;;;;;40.10;36.60;;;18.60;99.90;;;;;;5050787;28;20128;-63
2023/08/14 01:58:15;;;;;;;40.42;36.55;;;18.60;99.90;;;;;;5051543;28;20483;-64
2023/08/14 02:00:40;;;;;;;39.00;35.40;;;18.50;99.90;;;;;;5050393;28;20049;-64
2023/08/14 02:03:06;;;;;;;39.55;35.92;;;18.10;99.90;;;;;;5051205;28;20046;-64
2023/08/14 02:05:32;;;;;;;40.53;36.70;;;18.60;99.90;;;;;;5051519;28;20576;-63
2023/08/14 02:07:57;;;;;;;40.63;36.97;;;18.00;99.90;;;;;;5050995;28;20041;-64
2023/08/14 02:10:23;;;;;;;39.95;36.38;;;18.00;99.90;;;;;;5050104;28;20059;-63
2023/08/14 02:12:48;;;;;;;38.30;34.75;;;18.00;99.90;;;;;;5050475;28;20502;-62
2023/08/14 02:15:14;;;;;;;38.50;35.00;;;18.70;99.90;;;;;;5050297;28;20107;-62
2023/08/14 02:17:40;;;;;;;38.05;34.47;;;18.60;99.90;;;;;;5050779;28;20062;-62
2023/08/14 02:20:06;;;;;;;39.10;35.25;;;18.00;99.90;;;;;;5050579;28;20037;-62
2023/08/14 02:22:31;;;;;;;37.28;33.97;;;18.10;99.90;;;;;;5050274;28;20029;-62
2023/08/14 02:24:57;;;;;;;37.80;34.30;;;18.70;99.90;;;;;;5050488;28;20544;-62
2023/08/14 02:27:23;;;;;;;38.50;34.60;;;18.00;99.90;;;;;;5053287;28;20036;-62
2023/08/14 02:29:48;;;;;;;36.70;33.28;;;17.90;99.90;;;;;;5051668;28;20063;-62
2023/08/14 02:32:14;;;;;;;37.00;33.63;;;18.70;99.90;;;;;;5049120;28;20033;-62
2023/08/14 02:34:46;;;;;;;37.33;33.72;;;18.50;99.90;;;;;;5049355;28;20033;-62
2023/08/14 02:37:13;;;;;;;36.05;32.80;;;18.60;99.90;;;;;;5042353;28;20414;-62
2023/08/14 02:39:38;;;;;;;38.08;34.25;;;18.20;99.90;;;;;;5050133;28;20051;-62
2023/08/14 02:42:04;;;;;;;37.95;34.25;;;18.00;99.90;;;;;;5050111;28;20108;-62
2023/08/14 02:44:30;;;;;;;36.92;33.83;;;17.90;99.90;;;;;;5050414;28;20109;-62
2023/08/14 02:46:56;;;;;;;38.33;34.58;;;18.00;99.90;;;;;;5049425;28;20112;-62
2023/08/14 02:49:22;;;;;;;37.88;34.25;;;17.50;99.90;;;;;;5050006;28;20040;-62
2023/08/14 02:51:48;;;;;;;38.70;35.08;;;18.00;99.90;;;;;;5049812;28;20037;-62
2023/08/14 02:54:13;;;;;;;38.63;34.65;;;17.60;99.90;;;;;;5050282;28;20103;-62
2023/08/14 02:56:39;;;;;;;38.35;34.75;;;17.50;99.90;;;;;;5050221;28;20119;-62
2023/08/14 02:59:05;;;;;;;39.17;35.10;;;17.60;99.90;;;;;;5051607;28;20463;-62
2023/08/14 03:01:30;;;;;;;40.90;36.83;;;18.40;99.90;;;;;;5049747;28;20047;-62
2023/08/14 03:03:56;;;;;;;38.88;35.22;;;18.40;99.90;;;;;;5049465;28;20384;-62
2023/08/14 03:06:21;;;;;;;39.20;35.58;;;18.50;99.90;;;;;;5048266;28;20058;-62
2023/08/14 03:08:48;;;;;;;39.60;35.60;;;18.00;99.90;;;;;;5049152;28;20041;-62
2023/08/14 03:11:14;;;;;;;37.47;34.08;;;17.80;99.90;;;;;;5049412;28;20123;-62
2023/08/14 03:13:40;;;;;;;37.60;33.95;;;17.80;99.90;;;;;;5049855;28;20113;-62
2023/08/14 03:16:06;;;;;;;39.28;35.72;;;17.80;99.90;;;;;;5049184;28;20037;-62
2023/08/14 03:18:31;;;;;;;38.05;34.53;;;18.20;99.90;;;;;;5046682;28;20041;-62
2023/08/14 03:20:57;;;;;;;39.25;35.65;;;17.80;99.90;;;;;;5045310;28;20380;-62
2023/08/14 03:23:22;;;;;;;38.13;34.55;;;17.90;99.90;;;;;;5049209;28;20024;-60
2023/08/14 03:25:48;;;;;;;38.08;34.50;;;17.80;99.90;;;;;;5049319;28;20103;-61
2023/08/14 03:28:14;;;;;;;38.33;34.78;;;18.50;99.90;;;;;;5049016;28;20028;-60
2023/08/14 03:30:43;;;;;;;39.30;35.45;;;18.40;99.90;;;;;;5047584;28;20029;-62
2023/08/14 03:33:09;;;;;;;38.22;34.78;;;17.60;99.90;;;;;;5049648;28;20390;-61
2023/08/14 03:35:35;;;;;;;38.20;34.67;;;18.50;99.90;;;;;;5048704;28;20124;-61
2023/08/14 03:38:00;;;;;;;37.95;34.30;;;17.70;99.90;;;;;;5049002;28;20151;-61
2023/08/14 03:40:26;;;;;;;38.08;34.67;;;18.30;99.90;;;;;;5049041;28;20563;-61
2023/08/14 03:42:51;;;;;;;37.13;33.80;;;18.20;99.90;;;;;;5048703;28;20036;-60
2023/08/14 03:45:17;;;;;;;37.50;34.00;;;18.20;99.90;;;;;;5052038;28;20028;-60
2023/08/14 03:47:43;;;;;;;36.33;33.13;;;18.40;99.90;;;;;;5049670;28;20521;-60
2023/08/14 03:50:08;;;;;;;38.38;34.60;;;18.40;99.90;;;;;;5049348;28;20047;-61
2023/08/14 03:52:34;;;;;;;37.85;34.45;;;17.80;99.90;;;;;;5049144;28;20036;-61
2023/08/14 03:54:59;;;;;;;38.22;34.75;;;18.50;99.90;;;;;;5048216;28;20045;-61
2023/08/14 03:57:25;;;;;;;37.25;33.67;;;18.40;99.90;;;;;;5049285;28;20041;-61
2023/08/14 03:59:51;;;;;;;38.30;34.42;;;18.50;99.90;;;;;;5049891;28;20053;-61
2023/08/14 04:02:16;;;;;;;35.00;32.08;;;18.10;99.90;;;;;;5048718;28;20501;-61
2023/08/14 04:04:42;;;;;;;37.30;33.80;;;18.10;99.90;;;;;;5048928;28;20140;-61
2023/08/14 04:07:07;;;;;;;34.75;31.55;;;18.30;99.90;;;;;;5047749;28;20521;-61
2023/08/14 04:09:33;;;;;;;36.97;33.47;;;17.90;99.90;;;;;;5049280;28;20033;-61
2023/08/14 04:12:01;;;;;;;38.38;34.60;;;17.60;99.90;;;;;;5049276;28;20048;-61
2023/08/14 04:14:27;;;;;;;38.13;34.53;;;18.30;99.90;;;;;;5048968;28;20049;-61
2023/08/14 04:16:54;;;;;;;39.05;35.55;;;17.80;99.90;;;;;;5050921;28;20087;-61
2023/08/14 04:19:20;;;;;;;37.55;33.95;;;18.30;99.90;;;;;;5048425;28;20596;-61
2023/08/14 04:21:46;;;;;;;38.30;34.60;;;17.70;99.90;;;;;;5051371;28;20040;-61
2023/08/14 04:24:12;;;;;;;40.55;36.80;;;18.40;99.90;;;;;;5052217;28;20047;-61
2023/08/14 04:26:38;;;;;;;40.08;36.35;;;18.30;99.90;;;;;;5052803;28;20580;-61
2023/08/14 04:29:06;;;;;;;38.83;35.40;;;18.00;99.90;;;;;;5052499;28;20033;-61
2023/08/14 04:31:33;;;;;;;39.63;35.72;;;17.40;99.90;;;;;;5055169;28;20029;-61
2023/08/14 04:33:59;;;;;;;39.72;36.35;;;17.30;99.90;;;;;;5052948;28;20392;-62
2023/08/14 04:36:24;;;;;;;38.78;35.13;;;17.80;99.90;;;;;;5051842;28;20056;-62
2023/08/14 04:38:50;;;;;;;39.78;35.92;;;17.30;99.90;;;;;;5052728;28;20028;-62
2023/08/14 04:41:15;;;;;;;39.67;36.13;;;17.50;99.90;;;;;;5052390;28;20040;-62
2023/08/14 04:43:41;;;;;;;39.08;35.42;;;18.10;99.90;;;;;;5052492;28;20037;-62
2023/08/14 04:46:11;;;;;;;39.03;35.38;;;17.30;99.90;;;;;;5052221;28;20037;-62
2023/08/14 04:48:37;;;;;;;37.75;34.38;;;17.70;99.90;;;;;;5051640;28;20627;-62
2023/08/14 04:51:04;;;;;;;38.67;35.10;;;18.10;99.90;;;;;;5052486;28;20499;-62
2023/08/14 04:53:30;;;;;;;39.85;36.03;;;18.30;99.90;;;;;;5052413;28;20037;-62
2023/08/14 04:55:55;;;;;;;38.88;35.20;;;18.40;99.90;;;;;;5052497;28;20045;-62
2023/08/14 04:58:21;;;;;;;37.97;34.60;;;18.40;99.90;;;;;;5050864;28;20037;-62
2023/08/14 05:00:47;;;;;;;38.58;35.10;;;18.00;99.90;;;;;;5049606;28;20037;-62
2023/08/14 05:03:12;;;;;;;39.28;35.60;;;18.30;99.90;;;;;;5051584;28;20045;-62
2023/08/14 05:05:38;;;;;;;40.10;36.47;;;17.50;99.90;;;;;;5049820;28;20066;-62
2023/08/14 05:08:04;;;;;;;41.30;37.40;;;17.60;99.90;;;;;;5050694;28;20056;-62
2023/08/14 05:10:29;;;;;;;39.85;36.15;;;18.70;99.90;;;;;;5050043;28;20029;-62
2023/08/14 05:12:55;;;;;;;39.65;35.75;;;17.70;99.90;;;;;;5050333;28;20132;-62
2023/08/14 05:15:21;;;;;;;38.67;34.63;;;18.60;99.90;;;;;;5048206;28;21444;-62
2023/08/14 05:17:46;;;;;;;38.70;35.08;;;17.80;99.90;;;;;;5056255;28;20040;-62
2023/08/14 05:20:12;;;;;;;38.50;35.17;;;18.00;99.90;;;;;;5049699;28;20080;-62
2023/08/14 05:22:38;;;;;;;38.63;35.15;;;18.40;99.90;;;;;;5046940;28;20253;-63
2023/08/14 05:25:05;;;;;;;39.35;35.42;;;17.90;99.90;;;;;;5048948;28;20028;-62
2023/08/14 05:27:36;;;;;;;39.60;35.83;;;18.50;99.90;;;;;;5049031;28;20041;-62
2023/08/14 05:30:02;;;;;;;38.95;35.47;;;19.20;99.90;;;;;;5052704;28;20041;-62
2023/08/14 05:32:28;;;;;;;40.67;37.05;;;19.20;99.90;;;;;;5048940;28;20041;-62
2023/08/14 05:34:53;;;;;;;39.22;35.72;;;18.10;99.90;;;;;;5051350;28;20048;-62
2023/08/14 05:37:19;;;;;;;39.15;35.55;;;18.10;99.90;;;;;;5050709;28;20114;-62
2023/08/14 05:39:44;;;;;;;38.42;34.83;;;19.40;99.90;;;;;;5051649;28;20048;-62
2023/08/14 05:42:10;;;;;;;38.85;35.03;;;18.40;99.90;;;;;;5051046;28;20033;-62
2023/08/14 05:44:36;;;;;;;38.25;34.95;;;18.40;99.90;;;;;;5050664;28;20040;-61
2023/08/14 05:47:01;;;;;;;39.75;35.90;;;19.40;99.90;;;;;;5049761;28;20037;-61
2023/08/14 05:49:27;;;;;;;38.67;35.17;;;18.30;99.90;;;;;;5053820;28;20124;-62
2023/08/14 05:51:53;;;;;;;38.35;35.05;;;18.50;99.90;;;;;;5049063;28;20051;-63
2023/08/14 05:54:18;;;;;;;38.78;34.88;;;19.20;99.90;;;;;;5050933;28;20417;-61
2023/08/14 05:56:45;;;;;;;39.25;35.75;;;18.70;99.90;;;;;;5048570;28;20522;-60
2023/08/14 05:59:11;;;;;;;39.35;35.72;;;18.50;99.90;;;;;;5041249;28;20645;-60
2023/08/14 06:01:36;;;;;;;38.17;34.78;;;18.40;99.90;;;;;;5048775;28;20057;-60
2023/08/14 06:04:02;;;;;;;38.42;34.97;;;19.00;99.90;;;;;;5051141;28;20546;-61
2023/08/14 06:06:28;;;;;;;38.42;34.40;;;18.40;99.90;;;;;;5047176;28;20509;-62
2023/08/14 06:08:53;;;;;;;41.42;37.67;;;19.60;99.90;;;;;;5051435;28;20442;-60
2023/08/14 06:11:19;;;;;;;38.22;34.92;;;19.50;99.90;;;;;;5051578;28;20474;-61
2023/08/14 06:13:44;;;;;;;38.25;34.88;;;18.40;99.90;;;;;;5047995;28;20112;-60
2023/08/14 06:16:12;;;;;;;37.03;33.75;;;19.10;99.90;;;;;;5049149;28;20120;-59
2023/08/14 06:18:37;;;;;;;37.65;34.35;;;19.30;99.90;;;;;;5051023;28;20113;-61
2023/08/14 06:21:03;;;;;;;37.53;34.42;;;19.70;99.90;;;;;;5047161;28;20124;-60
2023/08/14 06:23:28;;;;;;;37.90;34.42;;;19.40;99.90;;;;;;5051158;28;20045;-59
2023/08/14 06:25:54;;;;;;;37.97;34.65;;;18.50;99.90;;;;;;5049503;28;20536;-59
2023/08/14 06:28:19;;;;;;;39.10;35.30;;;19.50;99.90;;;;;;5049276;28;20076;-59
2023/08/14 06:30:45;;;;;;;38.08;34.97;;;20.00;99.90;;;;;;5055442;28;20041;-60
2023/08/14 06:33:11;;;;;;;40.45;36.85;;;20.00;99.90;;;;;;5058478;28;20131;-61
2023/08/14 06:35:36;;;;;;;38.50;35.13;;;19.10;99.90;;;;;;5058224;28;20406;-59
2023/08/14 06:38:02;;;;;;;39.38;35.53;;;20.10;99.90;;;;;;5054264;28;20063;-60
2023/08/14 06:40:27;;;;;;;38.95;35.22;;;19.90;99.90;;;;;;5057024;28;20086;-60
2023/08/14 06:42:53;;;;;;;38.75;35.38;;;20.20;99.90;;;;;;5052512;28;20491;-61
2023/08/14 06:45:21;;;;;;;38.63;35.17;;;20.30;99.90;;;;;;5057334;28;20639;-60
2023/08/14 06:47:47;;;;;;;39.10;35.60;;;19.50;99.90;;;;;;5051080;28;20055;-64
2023/08/14 06:50:13;;;;;;;38.30;34.97;;;19.90;99.90;;;;;;5049374;28;20045;-62
2023/08/14 06:52:39;;;;;;;38.53;34.90;;;19.60;99.90;;;;;;5048311;28;20032;-63
2023/08/14 06:55:05;;;;;;;38.47;34.90;;;20.10;99.90;;;;;;5051157;28;20041;-64
2023/08/14 06:57:31;;;;;;;39.10;35.30;;;19.50;99.90;;;;;;5047658;28;20537;-64
2023/08/14 06:59:56;;;;;;;39.47;36.03;;;20.90;99.90;;;;;;5049450;28;20055;-63
2023/08/14 07:02:22;;;;;;;39.75;36.13;;;20.80;99.90;;;;;;5046931;28;20048;-63
2023/08/14 07:04:48;;;;;;;39.83;36.03;;;19.80;99.90;;;;;;5038110;28;20040;-64
2023/08/14 07:07:13;;;;;;;38.45;35.00;;;20.00;99.90;;;;;;5049602;28;20447;-63
2023/08/14 07:09:39;;;;;;;37.92;34.50;;;20.10;99.90;;;;;;5050801;28;20049;-64
2023/08/14 07:12:05;;;;;;;35.47;32.08;;;21.30;99.90;;;;;;5051631;28;20049;-63
2023/08/14 07:14:31;;;;;;;36.17;32.90;;;20.50;99.90;;;;;;5050147;28;20698;-64
2023/08/14 07:16:57;;;;;;;35.22;31.90;;;20.90;99.90;;;;;;5053187;28;20087;-63
2023/08/14 07:19:23;;;;;;;38.13;34.83;;;20.60;99.90;;;;;;5052318;28;20543;-63
2023/08/14 07:21:48;;;;;;;40.08;36.25;;;20.50;99.90;;;;;;5047826;28;20056;-63
2023/08/14 07:24:14;;;;;;;37.60;34.20;;;21.30;99.90;;;;;;5048744;28;20041;-63
2023/08/14 07:26:40;;;;;;;33.28;30.27;;;21.70;99.90;;;;;;5047398;28;20041;-63
2023/08/14 07:29:07;;;;;;;30.17;27.52;;;21.70;99.90;;;;;;5051519;28;20868;-64
2023/08/14 07:31:32;;;;;;;30.25;27.65;;;21.20;99.90;;;;;;5050631;28;20037;-64
2023/08/14 07:33:58;;;;;;;26.63;24.23;;;20.90;99.90;;;;;;5051630;28;20047;-63
2023/08/14 07:36:24;;;;;;;30.27;27.77;;;21.20;99.90;;;;;;5051695;28;20085;-63
2023/08/14 07:38:49;;;;;;;29.35;26.65;;;21.80;99.90;;;;;;5050238;28;20044;-64
2023/08/14 07:41:15;;;;;;;28.25;25.73;;;21.60;99.90;;;;;;5051587;28;20044;-64
2023/08/14 07:43:40;;;;;;;25.80;23.70;;;21.80;99.90;;;;;;5051334;28;20089;-64
2023/08/14 07:46:07;;;;;;;25.23;23.10;;;22.30;99.90;;;;;;5050793;28;20025;-63
2023/08/14 07:48:33;;;;;;;23.75;21.85;;;22.20;99.90;;;;;;5046080;28;20051;-64
2023/08/14 07:50:58;;;;;;;25.08;22.88;;;22.10;99.90;;;;;;5046504;28;20702;-63
2023/08/14 07:53:24;;;;;;;24.63;22.48;;;22.40;99.90;;;;;;5046936;28;20526;-64
2023/08/14 07:55:50;;;;;;;22.67;20.50;;;22.20;99.90;;;;;;5045876;28;20025;-64
2023/08/14 07:58:17;;;;;;;23.95;21.70;;;22.60;99.90;;;;;;5050393;28;20029;-63
2023/08/14 08:00:43;;;;;;;26.88;24.48;;;22.40;99.90;;;;;;5050593;28;20118;-64
2023/08/14 08:03:08;;;;;;;25.60;23.15;;;22.20;99.90;;;;;;5046065;28;20037;-63
2023/08/14 08:05:34;;;;;;;30.95;24.92;;;22.20;99.90;;;;;;5046197;28;21231;-63
2023/08/14 08:08:01;;;;;;;25.77;23.67;;;22.20;99.90;;;;;;5047266;28;20044;-63
2023/08/14 08:10:27;;;;;;;24.33;22.17;;;22.50;99.90;;;;;;5047118;28;20426;-64
2023/08/14 08:12:52;;;;;;;23.30;21.30;;;22.30;1.00;;;;;;5047315;28;20041;-64
2023/08/14 08:15:18;;;;;;;22.88;20.92;;;22.20;99.90;;;;;;5045127;28;20717;-63
2023/08/14 08:17:44;;;;;;;21.80;19.90;;;22.30;99.90;;;;;;5048037;28;20191;-64
2023/08/14 08:20:10;;;;;;;23.15;21.08;;;22.40;91.20;;;;;;5048528;28;20045;-63
2023/08/14 08:22:35;;;;;;;23.00;21.08;;;22.70;99.90;;;;;;5056188;28;20036;-63
2023/08/14 08:25:01;;;;;;;20.80;18.92;;;22.60;99.90;;;;;;5046476;28;20045;-63
2023/08/14 08:27:27;;;;;;;21.88;20.05;;;22.90;1.00;;;;;;5046101;28;20044;-63
2023/08/14 08:29:52;;;;;;;22.75;20.65;;;22.90;1.00;;;;;;5047365;28;20040;-63
2023/08/14 08:32:18;;;;;;;21.33;19.30;;;22.80;99.90;;;;;;5049514;28;20043;-63
2023/08/14 08:34:43;;;;;;;20.50;18.63;;;23.20;99.90;;;;;;5047086;28;20048;-63
2023/08/14 08:37:09;;;;;;;19.85;18.23;;;23.50;1.00;;;;;;5053508;28;20032;-64
2023/08/14 08:39:34;;;;;;;20.00;18.02;;;23.60;1.00;;;;;;5045111;28;20146;-63
2023/08/14 08:42:02;;;;;;;19.70;18.10;;;23.60;99.90;;;;;;5040717;28;20120;-63
2023/08/14 08:44:33;;;;;;;20.23;18.60;;;23.60;1.00;;;;;;5045957;28;20064;-63
2023/08/14 08:47:10;;;;;;;20.55;18.88;;;23.50;99.90;;;;;;5047443;28;20082;-63
2023/08/14 08:49:36;;;;;;;21.52;19.52;;;23.30;99.90;;;;;;5043815;28;20128;-64
2023/08/14 08:52:05;;;;;;;23.10;21.20;;;23.10;99.90;;;;;;5044612;28;20068;-63
2023/08/14 08:54:32;;;;;;;20.67;18.85;;;23.00;99.90;;;;;;5045759;28;20037;-63
2023/08/14 08:56:59;;;;;;;21.65;19.90;;;22.90;2.10;;;;;;5049081;28;20068;-63
2023/08/14 08:59:25;;;;;;;18.88;17.15;;;23.10;74.80;;;;;;5048985;28;20106;-63
2023/08/14 09:01:51;;;;;;;16.90;15.40;;;23.50;99.90;;;;;;5047679;28;20051;-63
2023/08/14 09:04:17;;;;;;;15.32;13.77;;;23.90;34.40;;;;;;5048236;28;20045;-64
2023/08/14 09:06:43;;;;;;;16.17;14.60;;;24.70;1.00;;;;;;5044957;28;20044;-63
2023/08/14 09:09:12;;;;;;;15.48;14.07;;;24.80;1.00;;;;;;5052185;28;20502;-63
2023/08/14 09:11:38;;;;;;;13.93;12.57;;;25.30;99.90;;;;;;5050740;28;20025;-63
2023/08/14 09:14:05;;;;;;;16.02;14.73;;;25.40;99.90;;;;;;5051179;28;20056;-60
2023/08/14 09:16:30;;;;;;;15.02;13.63;;;25.40;99.90;;;;;;5044564;28;20040;-61
2023/08/14 09:19:00;;;;;;;12.07;11.13;;;25.30;99.90;;;;;;5049602;28;20041;-62
2023/08/14 09:21:28;;;;;;;12.50;11.40;;;25.70;75.80;;;;;;5052465;28;20075;-61
2023/08/14 09:23:55;;;;;;;13.57;12.27;;;25.80;1.00;;;;;;5049587;28;20086;-62
2023/08/14 09:26:21;;;;;;;14.13;13.02;;;25.70;1.00;;;;;;5049705;28;20084;-61
2023/08/14 09:28:47;;;;;;;14.27;13.18;;;25.50;1.00;;;;;;5048710;28;20040;-62
2023/08/14 09:31:14;;;;;;;15.55;14.10;;;25.30;1.00;;;;;;5048071;28;20683;-62
2023/08/14 09:33:41;;;;;;;18.45;16.65;;;25.00;1.00;;;;;;5048677;28;20041;-62
2023/08/14 09:36:07;;;;;;;15.80;14.45;;;25.00;1.00;;;;;;5050950;28;20128;-60
2023/08/14 09:38:33;;;;;;;18.00;16.40;;;25.00;1.00;;;;;;5049968;28;20098;-61
2023/08/14 09:41:00;;;;;;;16.10;14.63;;;25.00;1.00;;;;;;5049987;28;20095;-61
2023/08/14 09:43:28;;;;;;;13.77;12.57;;;24.80;1.00;;;;;;5049927;28;20041;-60
2023/08/14 09:45:56;;;;;;;15.27;14.05;;;24.90;1.00;;;;;;5051682;28;20559;-60
2023/08/14 09:48:22;;;;;;;15.00;13.50;;;24.80;1.00;;;;;;5047105;28;20093;-61
2023/08/14 09:50:51;;;;;;;14.18;12.77;;;24.80;1.00;;;;;;5051130;28;20045;-65
2023/08/14 09:53:18;;;;;;;12.85;11.60;;;24.70;1.00;;;;;;5048614;28;20048;-64
2023/08/14 09:55:43;;;;;;;11.93;10.60;;;24.80;1.00;;;;;;5050904;28;20124;-60
2023/08/14 09:58:10;;;;;;;12.13;10.93;;;25.30;1.00;;;;;;5051553;28;20529;-62
2023/08/14 10:00:37;;;;;;;10.32;9.30;;;25.80;1.00;;;;;;5049409;28;20124;-61
2023/08/14 10:03:07;;;;;;;10.40;9.35;;;25.60;1.00;;;;;;5047329;28;20033;-62
2023/08/14 10:05:33;;;;;;;10.40;9.43;;;25.70;1.00;;;;;;5045408;28;20037;-63
2023/08/14 10:08:00;;;;;;;11.60;10.55;;;25.60;1.00;;;;;;5047090;28;20755;-62
2023/08/14 10:10:31;;;;;;;11.32;10.32;;;25.70;1.00;;;;;;5048392;28;20036;-61
2023/08/14 10:12:58;;;;;;;10.98;9.93;;;25.70;1.00;;;;;;5047951;28;20048;-62
2023/08/14 10:15:34;;;;;;;11.98;10.82;;;25.70;99.90;;;;;;5047543;28;20788;-61
2023/08/14 10:18:03;;;;;;;;;;;25.80;99.90;;;;;;5048645;28;20036;-61
2023/08/14 10:20:33;;;;;;;11.15;10.15;;;25.80;99.90;;;;;;5048481;28;19924;-61
2023/08/14 10:23:00;;;;;;;12.23;11.13;;;25.80;99.90;;;;;;5051918;28;20854;-64
2023/08/14 10:25:26;;;;;;;10.65;9.57;;;26.00;99.90;;;;;;5050403;28;20072;-65
2023/08/14 10:27:52;;;;;;;10.75;9.57;;;26.10;99.90;;;;;;5050149;28;20546;-64
2023/08/14 10:30:22;;;;;;;9.27;8.48;;;26.00;99.90;;;;;;5049672;28;20048;-64
2023/08/14 10:32:49;;;;;;;11.73;10.63;;;26.00;99.90;;;;;;5048131;28;20032;-64
2023/08/14 10:35:15;;;;;;;11.52;9.38;;;26.20;99.90;;;;;;5044445;28;20056;-63
2023/08/14 10:37:46;;;;;;;10.45;9.38;;;26.30;99.90;;;;;;5052786;28;20032;-64
2023/08/14 10:40:21;;;;;;;9.05;8.15;;;26.40;99.90;;;;;;5048075;28;20050;-63
2023/08/14 10:42:50;;;;;;;9.60;8.70;;;26.50;99.90;;;;;;5049989;28;20044;-65
2023/08/14 10:45:17;;;;;;;9.35;7.65;;;26.70;99.90;;;;;;5051020;28;20108;-63
2023/08/14 10:47:43;;;;;;;7.57;6.80;;;26.70;99.90;;;;;;5076456;28;20044;-63
2023/08/14 10:50:19;;;;;;;31.08;28.40;;;26.60;99.90;;;;;;5048496;28;20044;-67
2023/08/14 10:52:50;;;;;;;33.00;30.30;;;26.70;99.90;;;;;;5049125;28;20063;-65
2023/08/14 10:55:22;;;;;;;32.90;30.23;;;26.80;99.90;;;;;;5050081;28;20044;-66
2023/08/14 10:57:48;;;;;;;33.92;31.33;;;26.90;99.90;;;;;;5050974;28;20052;-65
2023/08/14 11:00:26;;;;;;;27.33;25.33;;;26.80;99.90;;;;;;5050568;28;20052;-66
2023/08/14 11:03:05;;;;;;;28.65;26.33;;;26.80;99.90;;;;;;5046862;28;20056;-65
2023/08/14 11:05:40;;;;;;;32.80;30.33;;;26.90;99.90;;;;;;5046939;28;20048;-65
2023/08/14 11:08:08;;;;;;;31.25;28.70;;;26.90;99.90;;;;;;5050463;28;20032;-65
2023/08/14 11:10:34;;;;;;;38.22;35.22;;;26.80;99.90;;;;;;5049815;28;20041;-65
2023/08/14 11:13:01;;;;;;;43.88;40.42;;;26.80;99.90;;;;;;5049182;28;20124;-65
2023/08/14 11:15:31;;;;;;;44.72;40.70;;;26.70;99.90;;;;;;5055581;28;20418;-65
2023/08/14 11:17:57;;;;;;;41.25;38.03;;;26.80;99.90;;;;;;5049354;28;20073;-64
2023/08/14 11:20:29;;;;;;;41.88;38.28;;;26.80;99.90;;;;;;5046417;28;20068;-65
2023/08/14 11:22:55;;;;;;;40.67;37.72;;;26.70;99.90;;;;;;5048542;28;20537;-66
2023/08/14 11:25:21;;;;;;;47.58;43.85;;;26.60;99.90;;;;;;5048108;28;20029;-65
2023/08/14 11:27:49;;;;;;;46.95;43.25;;;26.40;99.90;;;;;;5047053;28;20136;-65
2023/08/14 11:30:16;;;;;;;39.35;36.08;;;26.50;99.90;;;;;;5044535;28;20467;-63
2023/08/14 11:32:42;;;;;;;31.02;28.45;;;26.40;99.90;;;;;;5043247;28;20045;-63
2023/08/14 11:35:07;;;;;;;28.05;25.98;;;26.50;99.90;;;;;;5048392;28;20036;-66
2023/08/14 11:37:34;;;;;;;50.65;46.85;;;26.40;99.90;;;;;;5045192;28;20050;-64
2023/08/14 11:40:04;;;;;;;17.70;16.25;;;26.80;99.90;;;;;;5048162;28;20033;-64
2023/08/14 11:42:32;;;;;;;31.20;28.90;;;26.40;99.90;;;;;;5050709;28;20375;-64
2023/08/14 11:45:05;;;;;;;19.40;17.80;;;26.40;99.90;;;;;;5044901;28;20411;-63
2023/08/14 11:47:36;;;;;;;11.23;10.05;;;26.50;99.90;;;;;;5046147;28;20037;-63
2023/08/14 11:50:07;;;;;;;6.40;5.32;;;26.40;99.90;;;;;;5047278;28;20460;-64
2023/08/14 11:52:34;;;;;;;7.68;4.38;;;26.40;99.90;;;;;;5048068;28;20128;-63
2023/08/14 11:55:00;;;;;;;5.32;3.60;;;26.40;99.90;;;;;;5046313;28;20044;-64
2023/08/14 11:57:31;;;;;;;6.20;4.25;;;26.40;99.90;;;;;;5048327;28;20483;-64
2023/08/14 11:59:59;;;;;;;7.53;4.90;;;26.40;99.90;;;;;;5044472;28;20172;-64
2023/08/14 12:02:28;;;;;;;6.13;3.58;;;26.40;99.90;;;;;;5046491;28;20040;-64
2023/08/14 12:05:00;;;;;;;6.80;3.97;;;26.40;99.90;;;;;;5046710;28;20033;-64
2023/08/14 12:07:26;;;;;;;6.80;5.55;;;26.60;99.90;;;;;;5046452;28;20033;-64
2023/08/14 12:09:55;;;;;;;6.47;5.55;;;27.10;99.90;;;;;;5048068;28;20454;-64
2023/08/14 12:12:21;;;;;;;6.55;4.45;;;26.80;99.90;;;;;;5049527;28;20033;-64
2023/08/14 12:14:48;;;;;;;7.95;3.28;;;26.80;99.90;;;;;;5044147;28;20576;-64
2023/08/14 12:17:16;;;;;;;7.32;3.78;;;26.60;99.90;;;;;;5049438;28;20048;-65
2023/08/14 12:19:42;;;;;;;7.07;4.28;;;26.50;99.90;;;;;;5045349;28;20049;-63
2023/08/14 12:22:08;;;;;;;7.75;6.95;;;26.50;99.90;;;;;;5044013;28;20033;-63
2023/08/14 12:24:43;;;;;;;5.65;4.13;;;26.60;99.90;;;;;;5046146;28;20589;-63
2023/08/14 12:27:15;;;;;;;5.40;2.80;;;26.70;99.90;;;;;;5050257;28;20049;-63
2023/08/14 12:29:41;;;;;;;5.55;2.30;;;26.80;99.90;;;;;;5047714;28;20418;-63